Time;durP1;ratioP1;P1;durP2;ratioP2;P2;SDS_P1;SDS_P2;PMS_P1;PMS_P2;Temp;Humidity;BMP_temperature;BMP_pressure;BME280_temperature;BME280_humidity;BME280_pressure;Samples;Min_cycle;Max_cycle;Signal;HPM_P1;HPM_P2
2022/06/04 00:00:39;;;;;;;2.28;0.70;;;17.50;65.60;;;;;;5034133;28;20028;-77
2022/06/04 00:03:05;;;;;;;2.63;0.60;;;17.40;66.20;;;;;;5034470;28;20485;-77
2022/06/04 00:05:34;;;;;;;2.65;0.85;;;17.40;66.30;;;;;;5034709;28;20056;-77
2022/06/04 00:08:01;;;;;;;4.68;0.82;;;17.50;66.40;;;;;;5034863;28;20025;-77
2022/06/04 00:16:02;;;;;;;4.10;0.70;;;17.30;67.10;;;;;;5035009;28;20113;-77
2022/06/04 00:18:28;;;;;;;5.60;1.10;;;17.40;67.30;;;;;;5034335;28;20029;-77
2022/06/04 00:20:55;;;;;;;2.40;0.88;;;17.30;67.50;;;;;;5034787;28;20028;-77
2022/06/04 00:23:21;;;;;;;4.43;0.90;;;17.20;67.60;;;;;;5034445;28;20029;-77
2022/06/04 00:25:53;;;;;;;4.05;1.10;;;17.20;68.00;;;;;;5034332;28;20032;-77
2022/06/04 00:28:20;;;;;;;3.10;1.30;;;17.10;68.20;;;;;;5034369;28;20022;-77
2022/06/04 00:30:46;;;;;;;3.00;1.10;;;16.80;68.90;;;;;;5034544;28;20029;-77
2022/06/04 00:33:13;;;;;;;2.60;1.10;;;16.60;69.50;;;;;;5034076;28;20520;-77
2022/06/04 00:35:39;;;;;;;3.40;1.02;;;16.70;69.60;;;;;;5034230;28;20043;-77
2022/06/04 00:38:06;;;;;;;4.03;1.30;;;16.70;69.40;;;;;;5033820;28;20025;-77
2022/06/04 00:40:44;;;;;;;4.30;1.15;;;16.80;69.40;;;;;;5034471;28;20021;-77
2022/06/04 00:43:10;;;;;;;4.07;1.00;;;16.80;69.30;;;;;;5034209;28;20048;-77
2022/06/04 00:45:35;;;;;;;5.68;1.25;;;16.90;69.00;;;;;;5034201;28;20104;-77
2022/06/04 00:48:05;;;;;;;3.13;1.00;;;17.00;68.90;;;;;;5034087;28;20029;-77
2022/06/04 00:50:33;;;;;;;3.92;1.40;;;16.90;69.10;;;;;;5033544;28;20025;-77
2022/06/04 00:53:02;;;;;;;3.00;1.15;;;16.70;69.50;;;;;;5034162;28;20397;-77
2022/06/04 00:55:40;;;;;;;5.13;1.50;;;16.60;69.80;;;;;;5034371;28;20029;-77
2022/06/04 00:58:24;;;;;;;5.30;1.20;;;16.50;70.20;;;;;;5033991;28;20033;-77
2022/06/04 01:01:22;;;;;;;3.83;1.25;;;16.40;70.40;;;;;;5034082;28;20029;-77
2022/06/04 01:03:56;;;;;;;3.75;1.35;;;16.40;70.60;;;;;;5032535;28;20033;-77
2022/06/04 01:06:41;;;;;;;2.60;1.20;;;16.40;70.70;;;;;;5033770;28;20025;-77
2022/06/04 01:09:36;;;;;;;3.13;1.23;;;16.30;71.00;;;;;;5033896;28;20025;-77
2022/06/04 01:12:43;;;;;;;4.35;1.70;;;16.30;71.20;;;;;;5033472;28;20029;-77
2022/06/04 01:15:33;;;;;;;4.93;1.58;;;16.30;71.00;;;;;;5033081;28;20022;-77
2022/06/04 01:18:10;;;;;;;4.22;1.70;;;16.30;71.00;;;;;;5033455;28;20117;-77
2022/06/04 01:21:02;;;;;;;2.47;1.23;;;16.40;71.00;;;;;;5033756;28;20032;-77
2022/06/04 01:23:56;;;;;;;5.57;1.20;;;16.40;71.00;;;;;;5033536;28;20021;-77
2022/06/04 01:26:27;;;;;;;5.93;1.70;;;16.40;71.10;;;;;;5033360;28;20116;-77
2022/06/04 01:28:59;;;;;;;3.67;1.50;;;16.30;71.20;;;;;;5033347;28;20024;-77
2022/06/04 01:31:37;;;;;;;4.97;1.38;;;16.10;71.70;;;;;;5033362;28;20022;-77
2022/06/04 01:34:07;;;;;;;6.57;2.20;;;16.00;72.60;;;;;;5033329;28;20033;-77
2022/06/04 01:36:50;;;;;;;5.72;1.80;;;15.80;73.40;;;;;;5033426;28;20029;-77
2022/06/04 01:39:24;;;;;;;5.38;1.80;;;15.80;73.50;;;;;;5033361;28;20033;-77
2022/06/04 01:41:56;;;;;;;2.88;1.50;;;15.90;73.40;;;;;;5033534;28;20104;-77
2022/06/04 01:44:37;;;;;;;4.10;1.80;;;15.80;73.60;;;;;;5033299;28;20025;-77
2022/06/04 01:47:05;;;;;;;5.93;1.90;;;15.80;73.60;;;;;;5033455;28;20033;-77
2022/06/04 01:49:33;;;;;;;5.32;2.40;;;15.80;73.90;;;;;;5033289;28;20060;-77
2022/06/04 01:52:11;;;;;;;5.85;1.77;;;15.80;74.00;;;;;;5032966;28;20053;-77
2022/06/04 01:54:49;;;;;;;2.92;1.50;;;15.80;74.00;;;;;;5033238;28;20033;-77
2022/06/04 01:57:32;;;;;;;3.70;1.55;;;16.00;73.40;;;;;;5032985;28;20056;-77
2022/06/04 02:00:16;;;;;;;7.07;2.40;;;16.10;73.10;;;;;;5033082;28;20021;-77
2022/06/04 02:02:55;;;;;;;3.53;1.80;;;16.00;73.10;;;;;;5032785;28;20473;-77
2022/06/04 02:05:37;;;;;;;6.68;1.70;;;16.00;73.60;;;;;;5032861;28;20045;-77
2022/06/04 02:08:05;;;;;;;6.05;2.10;;;15.90;73.80;;;;;;5033289;28;20124;-77
2022/06/04 02:10:33;;;;;;;4.45;2.10;;;15.90;73.90;;;;;;5032911;28;20534;-77
2022/06/04 02:13:03;;;;;;;3.85;1.98;;;15.70;74.50;;;;;;5032650;28;20063;-77
2022/06/04 02:15:57;;;;;;;6.88;2.45;;;15.60;74.90;;;;;;5033201;28;20140;-77
2022/06/04 02:18:23;;;;;;;6.32;2.20;;;15.60;75.10;;;;;;5004571;28;20030;-77
2022/06/04 02:20:49;;;;;;;6.78;2.50;;;15.50;75.60;;;;;;5032884;28;20018;-77
2022/06/04 02:23:15;;;;;;;4.05;2.17;;;15.40;75.90;;;;;;5032907;28;20112;-77
2022/06/04 02:25:41;;;;;;;5.07;2.20;;;15.40;76.20;;;;;;5035836;28;20044;-77
2022/06/04 02:28:07;;;;;;;3.03;1.73;;;15.50;76.20;;;;;;5036892;28;20463;-77
2022/06/04 02:30:48;;;;;;;4.55;2.40;;;15.50;76.20;;;;;;5036563;28;20065;-77
2022/06/04 02:33:40;;;;;;;6.88;1.63;;;15.50;76.20;;;;;;5036632;28;20037;-77
2022/06/04 02:36:19;;;;;;;7.47;2.40;;;15.60;76.00;;;;;;5036402;28;20030;-77
2022/06/04 02:38:53;;;;;;;4.57;1.73;;;15.60;76.00;;;;;;5036527;28;20036;-77
2022/06/04 02:41:27;;;;;;;4.97;2.13;;;15.60;76.00;;;;;;5036651;28;20049;-77
2022/06/04 02:44:34;;;;;;;4.80;1.90;;;15.50;76.20;;;;;;5036345;28;20508;-77
2022/06/04 02:47:12;;;;;;;5.35;2.38;;;15.40;76.40;;;;;;5036150;28;20030;-77
2022/06/04 02:49:46;;;;;;;5.25;2.30;;;15.40;76.50;;;;;;5036114;28;20116;-77
2022/06/04 02:52:15;;;;;;;5.53;1.60;;;15.50;76.70;;;;;;5036390;28;20397;-77
2022/06/04 02:54:48;;;;;;;5.88;2.05;;;15.50;76.80;;;;;;5036338;28;20029;-77
2022/06/04 02:57:15;;;;;;;7.38;2.13;;;15.50;76.70;;;;;;5036317;28;20025;-77
2022/06/04 02:59:43;;;;;;;7.05;2.10;;;15.50;76.70;;;;;;5036217;28;20026;-77
2022/06/04 03:02:10;;;;;;;5.22;2.03;;;15.40;77.20;;;;;;5036081;28;20052;-77
2022/06/04 03:04:47;;;;;;;9.20;2.40;;;15.50;77.30;;;;;;5035627;28;20077;-77
2022/06/04 03:07:13;;;;;;;8.32;2.20;;;15.40;77.80;;;;;;5036111;28;20198;-77
2022/06/04 03:09:39;;;;;;;6.50;2.20;;;15.20;78.40;;;;;;5036069;28;20036;-77
2022/06/04 03:12:06;;;;;;;6.82;2.97;;;15.10;79.20;;;;;;5036063;28;20116;-77
2022/06/04 03:14:32;;;;;;;6.53;2.33;;;15.00;79.60;;;;;;5035772;28;20026;-77
2022/06/04 03:16:57;;;;;;;6.57;2.80;;;15.00;80.00;;;;;;5035989;28;20029;-77
2022/06/04 03:19:23;;;;;;;6.03;2.95;;;15.00;80.30;;;;;;5035602;28;20485;-77
2022/06/04 03:21:49;;;;;;;5.78;2.78;;;15.10;80.40;;;;;;5035740;28;20037;-77
2022/06/04 03:24:15;;;;;;;5.32;2.47;;;15.10;80.40;;;;;;5035298;28;20025;-77
2022/06/04 03:26:42;;;;;;;7.47;2.88;;;15.10;80.50;;;;;;5035472;28;20517;-77
2022/06/04 03:29:08;;;;;;;6.45;2.55;;;15.10;80.60;;;;;;5035374;28;20473;-77
2022/06/04 03:31:34;;;;;;;4.85;2.97;;;15.20;80.70;;;;;;5035434;28;20088;-77
2022/06/04 03:34:00;;;;;;;5.28;2.30;;;15.20;80.60;;;;;;5035323;28;20025;-77
2022/06/04 03:36:26;;;;;;;6.20;2.33;;;15.20;80.90;;;;;;5035102;28;20037;-77
2022/06/04 03:38:59;;;;;;;6.97;3.05;;;15.20;81.00;;;;;;5035407;28;20068;-77
2022/06/04 03:41:24;;;;;;;8.45;2.88;;;15.20;81.10;;;;;;5035308;28;20064;-77
2022/06/04 03:43:52;;;;;;;9.93;3.03;;;15.10;81.50;;;;;;5035254;28;20497;-77
2022/06/04 03:46:27;;;;;;;6.18;2.83;;;15.10;81.70;;;;;;5035471;28;20061;-77
2022/06/04 03:48:54;;;;;;;7.28;3.50;;;15.20;81.80;;;;;;5035110;28;20022;-77
2022/06/04 03:51:21;;;;;;;7.93;3.42;;;15.10;82.00;;;;;;5035300;28;20030;-77
2022/06/04 03:53:47;;;;;;;11.23;3.20;;;15.10;82.40;;;;;;5034795;28;20552;-77
2022/06/04 03:56:13;;;;;;;9.18;3.17;;;15.00;82.90;;;;;;5035173;28;20120;-77
2022/06/04 03:58:38;;;;;;;9.35;3.47;;;15.00;83.90;;;;;;5035131;28;20052;-77
2022/06/04 04:01:18;;;;;;;4.80;2.85;;;14.90;83.70;;;;;;5034987;28;20022;-76
2022/06/04 04:03:44;;;;;;;8.40;2.97;;;14.90;83.90;;;;;;5034599;28;20424;-76
2022/06/04 04:06:25;;;;;;;10.10;3.78;;;14.90;84.30;;;;;;5035096;28;20024;-76
2022/06/04 04:08:52;;;;;;;5.45;2.78;;;14.70;85.00;;;;;;5034781;28;20032;-75
2022/06/04 04:11:21;;;;;;;5.63;3.03;;;14.80;85.40;;;;;;5034742;28;20025;-75
2022/06/04 04:13:47;;;;;;;10.13;3.35;;;14.80;85.60;;;;;;5034708;28;20041;-75
2022/06/04 04:16:15;;;;;;;7.00;3.10;;;14.80;85.70;;;;;;5034875;28;20026;-76
2022/06/04 04:18:40;;;;;;;5.22;2.70;;;14.90;85.70;;;;;;5034535;28;20030;-75
2022/06/04 04:21:12;;;;;;;8.45;3.60;;;15.00;85.60;;;;;;5034378;28;20124;-76
2022/06/04 04:23:38;;;;;;;8.15;3.50;;;15.10;85.30;;;;;;5034756;28;20068;-76
2022/06/04 04:26:06;;;;;;;10.07;3.60;;;15.10;85.40;;;;;;5034337;28;20094;-76
2022/06/04 04:28:32;;;;;;;9.70;3.83;;;15.10;85.40;;;;;;5034535;28;20042;-76
2022/06/04 04:30:58;;;;;;;9.73;3.63;;;15.10;85.90;;;;;;5034566;28;20048;-76
2022/06/04 04:33:24;;;;;;;9.10;4.05;;;15.10;86.00;;;;;;5034082;28;20492;-76
2022/06/04 04:35:50;;;;;;;13.32;3.95;;;15.10;86.40;;;;;;5034225;28;20052;-75
2022/06/04 04:38:18;;;;;;;7.47;3.55;;;15.00;87.00;;;;;;5034344;28;20483;-76
2022/06/04 04:40:45;;;;;;;10.30;3.42;;;15.00;87.30;;;;;;5034130;28;20029;-76
2022/06/04 04:43:11;;;;;;;9.27;3.97;;;15.00;87.40;;;;;;5034424;28;20099;-76
2022/06/04 04:45:37;;;;;;;9.10;3.40;;;15.00;87.40;;;;;;5034070;28;20051;-76
2022/06/04 04:48:04;;;;;;;8.27;3.70;;;14.90;87.90;;;;;;5033057;28;20064;-76
2022/06/04 04:50:33;;;;;;;8.60;3.83;;;14.90;88.20;;;;;;5034155;28;20053;-76
2022/06/04 04:53:01;;;;;;;8.68;4.13;;;14.90;88.30;;;;;;5033998;28;20068;-75
2022/06/04 04:55:27;;;;;;;7.55;3.80;;;15.00;88.20;;;;;;5033956;28;20021;-75
2022/06/04 04:57:53;;;;;;;9.23;4.30;;;15.00;88.30;;;;;;5033697;28;20087;-75
2022/06/04 05:00:20;;;;;;;10.93;4.50;;;15.10;88.40;;;;;;5033519;28;20022;-76
2022/06/04 05:02:46;;;;;;;9.50;4.25;;;15.10;88.20;;;;;;5033570;28;20473;-76
2022/06/04 05:05:13;;;;;;;9.68;4.28;;;15.20;88.40;;;;;;5033453;28;20094;-76
2022/06/04 05:07:40;;;;;;;9.73;4.03;;;15.20;88.30;;;;;;5033659;28;20486;-76
2022/06/04 05:10:07;;;;;;;9.27;3.88;;;15.20;88.50;;;;;;5033743;28;20029;-76
2022/06/04 05:12:32;;;;;;;9.05;4.18;;;15.20;88.70;;;;;;5033518;28;20148;-76
2022/06/04 05:14:58;;;;;;;8.55;4.50;;;15.20;89.00;;;;;;5033255;28;20379;-75
2022/06/04 05:17:23;;;;;;;11.93;4.70;;;15.30;88.70;;;;;;5033502;28;20025;-76
2022/06/04 05:19:49;;;;;;;8.23;4.10;;;15.40;88.60;;;;;;5033416;28;20026;-76
2022/06/04 05:22:14;;;;;;;10.30;4.55;;;15.30;88.80;;;;;;5033590;28;20025;-75
2022/06/04 05:24:40;;;;;;;8.00;4.28;;;15.30;88.90;;;;;;5033402;28;20031;-75
2022/06/04 05:27:06;;;;;;;9.15;4.57;;;15.40;88.70;;;;;;5033226;28;20494;-76
2022/06/04 05:29:33;;;;;;;8.93;4.65;;;15.40;88.70;;;;;;5033485;28;20026;-75
2022/06/04 05:31:59;;;;;;;5.63;3.55;;;15.40;88.90;;;;;;5033088;28;20480;-75
2022/06/04 05:34:25;;;;;;;6.75;4.00;;;15.40;88.90;;;;;;5033368;28;20112;-76
2022/06/04 05:36:53;;;;;;;5.13;3.67;;;15.40;89.20;;;;;;5033131;28;20032;-76
2022/06/04 05:39:19;;;;;;;7.50;3.40;;;15.30;89.50;;;;;;5033136;28;20052;-76
2022/06/04 05:41:45;;;;;;;11.93;4.85;;;15.40;89.30;;;;;;5032940;28;20044;-76
2022/06/04 05:44:12;;;;;;;12.25;4.95;;;15.40;89.00;;;;;;5033048;28;20469;-76
2022/06/04 05:46:44;;;;;;;8.93;4.35;;;15.40;88.80;;;;;;5033197;28;20036;-76
2022/06/04 05:49:11;;;;;;;12.20;4.47;;;15.40;89.20;;;;;;5033339;28;20017;-76
2022/06/04 05:51:37;;;;;;;9.10;4.30;;;15.40;88.90;;;;;;5032752;28;20271;-76
2022/06/04 05:54:04;;;;;;;9.73;4.25;;;15.50;89.00;;;;;;5033184;28;20033;-76
2022/06/04 05:56:32;;;;;;;8.88;4.63;;;15.50;89.20;;;;;;5033257;28;20110;-76
2022/06/04 05:59:00;;;;;;;9.52;3.63;;;15.60;89.30;;;;;;5032935;28;20029;-76
2022/06/04 06:01:28;;;;;;;9.82;4.10;;;15.70;89.00;;;;;;5036956;28;20018;-76
2022/06/04 06:03:54;;;;;;;8.43;3.60;;;15.80;88.00;;;;;;5036595;28;20029;-76
2022/06/04 06:06:27;;;;;;;10.65;4.60;;;15.90;88.10;;;;;;5037039;28;20068;-76
2022/06/04 06:08:54;;;;;;;10.00;3.95;;;15.90;87.70;;;;;;5036906;28;20033;-76
2022/06/04 06:11:20;;;;;;;7.63;4.55;;;15.90;87.80;;;;;;5036782;28;20025;-76
2022/06/04 06:13:47;;;;;;;9.30;4.45;;;15.90;88.00;;;;;;5037161;28;20038;-76
2022/06/04 06:16:16;;;;;;;9.27;4.40;;;15.80;88.00;;;;;;5037029;28;20025;-76
2022/06/04 06:18:42;;;;;;;9.60;4.03;;;15.80;88.00;;;;;;5036748;28;20072;-77
2022/06/04 06:21:10;;;;;;;5.80;3.13;;;15.80;88.10;;;;;;5036631;28;20017;-76
2022/06/04 06:23:37;;;;;;;7.85;4.60;;;15.90;88.00;;;;;;5036620;28;20033;-76
2022/06/04 06:26:04;;;;;;;8.90;4.13;;;16.10;87.90;;;;;;5036850;28;20017;-76
2022/06/04 06:28:30;;;;;;;5.80;2.90;;;16.10;87.70;;;;;;5036932;28;20025;-76
2022/06/04 06:30:56;;;;;;;10.60;4.00;;;16.10;87.60;;;;;;5036719;28;20032;-76
2022/06/04 06:33:22;;;;;;;8.35;4.60;;;16.10;87.90;;;;;;5036386;28;20116;-76
2022/06/04 06:35:59;;;;;;;10.98;4.70;;;16.20;87.50;;;;;;5036497;28;20109;-76
2022/06/04 06:38:25;;;;;;;11.35;4.57;;;16.20;87.90;;;;;;5036363;28;20519;-77
2022/06/04 06:40:53;;;;;;;9.70;4.45;;;16.20;87.80;;;;;;5036022;28;20465;-77
2022/06/04 06:43:19;;;;;;;12.77;4.03;;;16.20;87.50;;;;;;5036321;28;20033;-76
2022/06/04 06:45:44;;;;;;;7.75;5.03;;;16.20;87.60;;;;;;5036484;28;20392;-77
2022/06/04 06:48:11;;;;;;;7.05;4.03;;;16.20;87.90;;;;;;5036301;28;20104;-76
2022/06/04 06:50:38;;;;;;;8.68;3.22;;;16.20;88.30;;;;;;5036120;28;20447;-76
2022/06/04 06:53:04;;;;;;;6.78;3.00;;;16.30;88.30;;;;;;5035727;28;20033;-76
2022/06/04 06:55:30;;;;;;;11.52;4.65;;;16.40;88.00;;;;;;5036462;28;20025;-76
2022/06/04 06:57:56;;;;;;;6.90;4.25;;;16.40;87.50;;;;;;5036388;28;20029;-76
2022/06/04 07:00:21;;;;;;;11.77;4.38;;;16.30;88.10;;;;;;5036333;28;20028;-76
2022/06/04 07:02:47;;;;;;;7.30;4.40;;;16.20;88.50;;;;;;5035801;28;20477;-76
2022/06/04 07:05:13;;;;;;;7.72;3.53;;;16.20;88.60;;;;;;5035861;28;20211;-77
2022/06/04 07:07:39;;;;;;;7.78;3.70;;;16.10;88.80;;;;;;5035738;28;20355;-76
2022/06/04 07:10:06;;;;;;;8.82;4.90;;;16.30;88.70;;;;;;5035259;28;20025;-77
2022/06/04 07:12:32;;;;;;;7.95;4.10;;;16.30;88.40;;;;;;5035843;28;20037;-76
2022/06/04 07:14:59;;;;;;;10.00;5.05;;;16.40;88.30;;;;;;5035994;28;20029;-76
2022/06/04 07:17:25;;;;;;;10.98;4.55;;;16.30;88.10;;;;;;5035549;28;20474;-76
2022/06/04 07:19:50;;;;;;;8.25;4.50;;;16.20;88.90;;;;;;5035706;28;20109;-76
2022/06/04 07:22:16;;;;;;;10.63;5.15;;;16.20;89.30;;;;;;5035522;28;20028;-76
2022/06/04 07:24:42;;;;;;;7.55;4.60;;;16.10;89.70;;;;;;5035467;28;20025;-76
2022/06/04 07:27:08;;;;;;;10.48;4.53;;;16.10;89.80;;;;;;5035677;28;20017;-76
2022/06/04 07:29:35;;;;;;;8.60;4.00;;;16.20;89.70;;;;;;5035192;28;20036;-76
2022/06/04 07:32:02;;;;;;;7.10;4.45;;;16.30;89.60;;;;;;5035124;28;20481;-76
2022/06/04 07:34:28;;;;;;;6.72;4.32;;;16.50;89.10;;;;;;5035259;28;20033;-77
2022/06/04 07:36:53;;;;;;;11.32;5.05;;;16.50;88.70;;;;;;5035333;28;20465;-76
2022/06/04 07:39:19;;;;;;;11.52;4.50;;;16.40;89.00;;;;;;5035457;28;20030;-76
2022/06/04 07:41:51;;;;;;;11.13;5.05;;;16.40;89.20;;;;;;5035244;28;20021;-76
2022/06/04 07:44:19;;;;;;;8.32;4.10;;;16.30;89.20;;;;;;5035055;28;20105;-76
2022/06/04 07:46:46;;;;;;;8.02;4.40;;;16.50;89.40;;;;;;5035000;28;20030;-76
2022/06/04 07:49:13;;;;;;;7.13;3.95;;;16.50;88.90;;;;;;5034767;28;20025;-76
2022/06/04 07:51:40;;;;;;;8.07;3.75;;;16.60;89.00;;;;;;5035057;28;20079;-76
2022/06/04 07:54:08;;;;;;;7.75;4.10;;;16.60;88.80;;;;;;5034593;28;20060;-77
2022/06/04 07:56:34;;;;;;;6.90;4.00;;;16.70;88.50;;;;;;5035025;28;20082;-76
2022/06/04 07:59:00;;;;;;;8.93;4.35;;;16.90;88.20;;;;;;5035073;28;20021;-76
2022/06/04 08:01:28;;;;;;;7.90;3.53;;;16.90;87.80;;;;;;5034887;28;20492;-76
2022/06/04 08:03:54;;;;;;;8.52;4.57;;;16.90;88.30;;;;;;5034172;28;20058;-76
2022/06/04 08:06:21;;;;;;;8.43;4.57;;;17.00;87.40;;;;;;5034723;28;20155;-77
2022/06/04 08:08:49;;;;;;;11.38;4.43;;;17.00;88.20;;;;;;5034727;28;20026;-77
2022/06/04 08:11:34;;;;;;;9.60;4.43;;;16.90;86.90;;;;;;5034453;28;20465;-76
2022/06/04 08:14:21;;;;;;;7.97;4.22;;;16.90;87.60;;;;;;5035005;28;20056;-76
2022/06/04 08:16:51;;;;;;;8.63;3.80;;;16.90;88.00;;;;;;5034780;28;20018;-76
2022/06/04 08:19:17;;;;;;;9.75;3.95;;;17.10;87.20;;;;;;5034275;28;20034;-77
2022/06/04 08:21:44;;;;;;;8.75;3.80;;;17.10;87.10;;;;;;5033718;28;20078;-76
2022/06/04 08:24:12;;;;;;;6.53;3.30;;;17.20;86.70;;;;;;5034123;28;20036;-77
2022/06/04 08:26:40;;;;;;;10.82;3.90;;;17.30;86.60;;;;;;5034486;28;20127;-77
2022/06/04 08:29:07;;;;;;;8.10;4.00;;;17.30;86.10;;;;;;5033952;28;20395;-77
2022/06/04 08:31:33;;;;;;;7.93;3.70;;;17.40;85.90;;;;;;5034075;28;20025;-77
2022/06/04 08:33:59;;;;;;;10.15;4.30;;;17.50;86.50;;;;;;5034010;28;20056;-77
2022/06/04 08:36:25;;;;;;;5.20;2.95;;;17.50;86.10;;;;;;5034346;28;20017;-77
2022/06/04 08:38:50;;;;;;;6.38;3.75;;;17.50;86.10;;;;;;5034169;28;20477;-77
2022/06/04 08:41:38;;;;;;;8.10;3.83;;;17.60;86.40;;;;;;5034193;28;20500;-77
2022/06/04 08:44:26;;;;;;;7.30;3.47;;;17.80;86.30;;;;;;5034025;28;20036;-77
2022/06/04 08:46:56;;;;;;;8.45;3.92;;;17.90;85.50;;;;;;5033850;28;20026;-77
2022/06/04 08:49:29;;;;;;;8.05;3.42;;;17.70;84.70;;;;;;5033912;28;20120;-77
2022/06/04 08:51:57;;;;;;;8.25;4.10;;;17.60;84.90;;;;;;5033632;28;20075;-77
2022/06/04 09:00:21;;;;;;;9.60;3.78;;;17.70;85.10;;;;;;5033495;28;20041;-77
2022/06/04 09:02:46;;;;;;;5.78;3.25;;;17.90;85.20;;;;;;5033761;28;20021;-77
2022/06/04 09:05:32;;;;;;;7.22;3.65;;;17.90;85.30;;;;;;5033648;28;20088;-77
2022/06/04 09:08:03;;;;;;;7.82;4.70;;;18.10;85.50;;;;;;5033686;28;20018;-77
2022/06/04 09:10:40;;;;;;;8.30;3.78;;;18.10;83.70;;;;;;5033841;28;20026;-77
2022/06/04 09:13:30;;;;;;;5.97;3.20;;;18.20;83.90;;;;;;5033546;28;20159;-77
2022/06/04 09:16:01;;;;;;;6.18;3.25;;;18.30;84.00;;;;;;5033482;28;20476;-77
2022/06/04 09:18:33;;;;;;;7.53;3.42;;;18.40;83.80;;;;;;5033282;28;20033;-77
2022/06/04 09:21:01;;;;;;;6.00;3.10;;;18.40;83.70;;;;;;5033434;28;20052;-77
2022/06/04 09:23:48;;;;;;;3.92;3.03;;;18.60;83.00;;;;;;5033353;28;20381;-77
2022/06/04 09:26:13;;;;;;;5.18;3.03;;;18.70;82.90;;;;;;5033201;28;20026;-77
2022/06/04 09:28:39;;;;;;;11.23;4.35;;;18.80;82.60;;;;;;5033745;28;20029;-77
2022/06/04 09:31:07;;;;;;;7.25;3.60;;;18.80;80.40;;;;;;5033112;28;20070;-77
2022/06/04 09:33:47;;;;;;;5.68;3.13;;;18.80;80.60;;;;;;5033174;28;20025;-77
2022/06/04 09:36:16;;;;;;;7.47;3.88;;;18.80;81.00;;;;;;5032927;28;20112;-77
2022/06/04 09:38:56;;;;;;;7.10;3.17;;;18.80;79.90;;;;;;5033511;28;20021;-77
2022/06/04 09:41:24;;;;;;;8.98;3.10;;;18.80;80.20;;;;;;5033289;28;20155;-77
2022/06/04 09:44:08;;;;;;;6.43;3.25;;;18.80;80.00;;;;;;5033161;28;20384;-77
2022/06/04 09:46:35;;;;;;;5.80;2.92;;;18.90;79.70;;;;;;5033247;28;20040;-77
2022/06/04 09:49:07;;;;;;;4.78;3.28;;;18.90;79.20;;;;;;5032628;28;20029;-77
2022/06/04 09:51:41;;;;;;;6.68;3.15;;;18.80;79.00;;;;;;5032814;28;20105;-77
2022/06/04 09:54:21;;;;;;;8.05;3.58;;;18.80;79.40;;;;;;5033227;28;20033;-77
2022/06/04 09:56:52;;;;;;;6.93;3.78;;;18.90;79.70;;;;;;5033009;28;20025;-77
2022/06/04 09:59:28;;;;;;;6.90;3.58;;;19.00;79.50;;;;;;5033068;28;20017;-77
2022/06/04 10:02:02;;;;;;;6.32;3.20;;;19.00;79.80;;;;;;5032928;28;20021;-77
2022/06/04 10:04:36;;;;;;;4.45;3.20;;;19.20;79.60;;;;;;5032648;28;20095;-77
2022/06/04 10:07:08;;;;;;;7.50;3.10;;;19.30;79.10;;;;;;5033028;28;20033;-77
2022/06/04 10:15:23;;;;;;;6.43;3.60;;;19.60;77.80;;;;;;5032770;28;20024;-77
2022/06/04 10:18:18;;;;;;;6.05;2.83;;;19.70;77.30;;;;;;5032974;28;20072;-77
2022/06/04 10:20:59;;;;;;;4.43;2.70;;;19.60;77.30;;;;;;5021923;28;20473;-77
2022/06/04 10:23:26;;;;;;;6.60;3.38;;;19.80;77.80;;;;;;5032677;28;20029;-77
2022/06/04 10:26:14;;;;;;;5.60;3.50;;;19.90;77.50;;;;;;5032722;28;20017;-77
2022/06/04 10:29:13;;;;;;;5.88;2.42;;;20.00;76.70;;;;;;5032987;28;20033;-77
2022/06/04 10:31:57;;;;;;;5.65;2.65;;;20.10;77.00;;;;;;5024787;28;20037;-77
2022/06/04 10:34:59;;;;;;;6.55;2.90;;;20.30;75.90;;;;;;5032900;28;20021;-77
2022/06/04 10:37:39;;;;;;;6.75;2.65;;;20.30;75.10;;;;;;5032625;28;20052;-77
2022/06/04 10:40:28;;;;;;;5.38;3.70;;;20.40;74.50;;;;;;5032580;28;20033;-77
2022/06/04 10:43:12;;;;;;;6.88;3.20;;;20.40;73.30;;;;;;5032560;28;20026;-77
2022/06/04 10:45:41;;;;;;;5.28;3.00;;;20.30;73.90;;;;;;5034004;28;20021;-77
2022/06/04 10:48:21;;;;;;;6.10;3.00;;;20.30;74.40;;;;;;5035986;28;20481;-78
2022/06/04 10:54:04;;;;;;;4.93;2.60;;;20.30;74.30;;;;;;5035947;28;20443;-77
2022/06/04 10:56:44;;;;;;;8.13;4.25;;;20.30;73.80;;;;;;5035844;28;20022;-77
2022/06/04 10:59:32;;;;;;;3.80;2.45;;;20.40;74.10;;;;;;5036090;28;20025;-77
2022/06/04 11:02:39;;;;;;;5.00;2.22;;;20.50;73.00;;;;;;5036141;28;20380;-77
2022/06/04 11:05:27;;;;;;;5.30;2.63;;;20.60;73.70;;;;;;5035329;28;20100;-77
2022/06/04 11:07:57;;;;;;;7.55;2.75;;;20.60;73.20;;;;;;5036225;28;20036;-77
2022/06/04 11:10:28;;;;;;;8.52;2.65;;;20.60;73.40;;;;;;5035888;28;20028;-77
2022/06/04 11:13:20;;;;;;;4.78;2.88;;;20.70;73.80;;;;;;5035495;28;20531;-77
2022/06/04 11:15:55;;;;;;;4.18;2.85;;;20.80;73.00;;;;;;5035449;28;20025;-77
2022/06/04 11:18:56;;;;;;;3.20;2.72;;;20.90;73.10;;;;;;5035938;28;20021;-77
2022/06/04 11:21:50;;;;;;;3.85;2.63;;;21.10;72.20;;;;;;5032956;28;20108;-77
2022/06/04 11:24:18;;;;;;;6.15;2.78;;;21.20;71.60;;;;;;5035689;28;20104;-77
2022/06/04 11:27:10;;;;;;;6.20;2.58;;;21.40;70.70;;;;;;5035075;28;20072;-77
2022/06/04 11:29:40;;;;;;;9.50;2.45;;;21.50;71.50;;;;;;5035875;28;20112;-77
2022/06/04 11:32:29;;;;;;;5.03;2.40;;;21.70;71.70;;;;;;5035117;28;20029;-77
2022/06/04 11:35:09;;;;;;;8.57;3.00;;;21.90;70.90;;;;;;5035651;28;20022;-77
2022/06/04 11:37:41;;;;;;;5.82;2.63;;;22.10;69.30;;;;;;5035422;28;20057;-77
2022/06/04 11:40:13;;;;;;;4.18;2.25;;;22.20;69.30;;;;;;5035118;28;20022;-77
2022/06/04 11:42:39;;;;;;;;;;;22.40;69.70;;;;;;5035511;28;20021;-77
2022/06/04 11:45:29;;;;;;;4.63;2.75;;;22.40;68.30;;;;;;5035432;28;19915;-77
2022/06/04 11:48:15;;;;;;;5.63;2.33;;;22.40;67.10;;;;;;5035245;28;20036;-77
2022/06/04 11:50:47;;;;;;;7.82;2.85;;;22.50;68.40;;;;;;5034945;28;20033;-77
2022/06/04 11:53:35;;;;;;;3.40;2.47;;;22.80;66.40;;;;;;5034888;28;20041;-77
2022/06/04 11:56:29;;;;;;;5.22;2.58;;;22.90;65.90;;;;;;5034596;28;20030;-77
2022/06/04 11:59:06;;;;;;;10.20;2.58;;;22.90;65.70;;;;;;5035382;28;20541;-77
2022/06/04 12:01:38;;;;;;;4.30;1.92;;;22.90;65.80;;;;;;5034969;28;20029;-77
2022/06/04 12:04:32;;;;;;;4.72;1.98;;;23.00;65.80;;;;;;5034163;28;20099;-77
2022/06/04 12:07:08;;;;;;;3.60;1.73;;;23.20;65.80;;;;;;5034777;28;20037;-77
2022/06/04 12:09:59;;;;;;;5.88;1.92;;;23.30;65.30;;;;;;5034641;28;20033;-77
2022/06/04 12:12:45;;;;;;;6.80;2.20;;;23.50;64.40;;;;;;5034310;28;20366;-77
2022/06/04 12:15:32;;;;;;;4.93;2.10;;;23.80;64.00;;;;;;5034530;28;20030;-77
2022/06/04 12:18:34;;;;;;;5.45;1.83;;;23.90;63.10;;;;;;5034444;28;20021;-77
2022/06/04 12:26:39;;;;;;;4.18;2.30;;;23.90;63.60;;;;;;5034121;28;20084;-78
2022/06/04 12:29:23;;;;;;;3.30;1.80;;;23.70;62.70;;;;;;5034604;28;20021;-77
2022/06/04 12:32:22;;;;;;;5.18;2.50;;;23.50;63.30;;;;;;5033685;28;20037;-77
2022/06/04 12:34:51;;;;;;;5.15;2.38;;;23.40;63.30;;;;;;5033989;28;20030;-77
2022/06/04 12:37:47;;;;;;;4.57;2.00;;;23.20;64.40;;;;;;5034503;28;20056;-77
2022/06/04 12:40:37;;;;;;;3.08;1.77;;;23.20;64.40;;;;;;5032221;28;20155;-77
2022/06/04 12:43:14;;;;;;;6.32;2.63;;;23.30;64.80;;;;;;5033717;28;20474;-77
2022/06/04 12:45:49;;;;;;;5.35;2.17;;;23.50;64.80;;;;;;5033943;28;20033;-77
2022/06/04 12:48:29;;;;;;;4.03;2.25;;;23.70;64.60;;;;;;5033528;28;20021;-77
2022/06/04 12:51:04;;;;;;;8.40;2.33;;;23.90;63.40;;;;;;5034212;28;20021;-77
2022/06/04 12:53:33;;;;;;;3.17;2.03;;;24.00;63.50;;;;;;5033320;28;20045;-77
2022/06/04 12:56:04;;;;;;;4.95;2.45;;;24.20;63.60;;;;;;5033652;28;20025;-77
2022/06/04 12:58:47;;;;;;;4.13;2.22;;;24.40;62.00;;;;;;5033456;28;20029;-77
2022/06/04 13:01:16;;;;;;;3.90;1.88;;;24.50;61.60;;;;;;5033298;28;20112;-77
2022/06/04 13:03:44;;;;;;;4.07;2.33;;;24.70;62.50;;;;;;5033317;28;20536;-77
2022/06/04 13:06:12;;;;;;;2.85;1.98;;;24.90;60.70;;;;;;5033542;28;20477;-78
2022/06/04 13:08:58;;;;;;;5.40;2.45;;;25.10;60.60;;;;;;5032871;28;20017;-77
2022/06/04 13:11:33;;;;;;;2.72;2.08;;;25.10;60.10;;;;;;5033601;28;20469;-77
2022/06/04 13:14:32;;;;;;;3.58;1.75;;;25.10;59.80;;;;;;5033275;28;20389;-78
2022/06/04 13:17:10;;;;;;;4.88;1.40;;;25.00;60.70;;;;;;5033651;28;20051;-77
2022/06/04 13:19:41;;;;;;;3.97;1.70;;;24.90;60.10;;;;;;5033180;28;20030;-77
2022/06/04 13:22:28;;;;;;;2.95;2.00;;;25.10;60.30;;;;;;5033218;28;20026;-78
2022/06/04 13:24:56;;;;;;;2.17;1.55;;;25.20;59.30;;;;;;5033371;28;20030;-77
2022/06/04 13:27:44;;;;;;;3.88;1.90;;;25.30;60.30;;;;;;5032930;28;20030;-77
2022/06/04 13:30:20;;;;;;;2.70;1.55;;;25.50;59.50;;;;;;5033372;28;20022;-77
2022/06/04 13:32:46;;;;;;;6.22;2.20;;;25.50;58.70;;;;;;5033006;28;20107;-77
2022/06/04 13:35:21;;;;;;;3.55;1.80;;;25.60;58.00;;;;;;5032862;28;20034;-76
2022/06/04 13:37:48;;;;;;;8.77;2.47;;;25.60;58.50;;;;;;5033094;28;20033;-76
2022/06/04 13:40:31;;;;;;;6.38;2.17;;;25.60;57.50;;;;;;5033177;28;20045;-76